Time;durP1;ratioP1;P1;durP2;ratioP2;P2;SDS_P1;SDS_P2;PMS_P1;PMS_P2;Temp;Humidity;BMP_temperature;BMP_pressure;BME280_temperature;BME280_humidity;BME280_pressure;Samples;Min_cycle;Max_cycle;Signal;HPM_P1;HPM_P2
2023/03/20 00:05:05;;;;;;;1.73;1.50;;;;;;;17.31;58.00;101460.00;20860272;28;20037;-85
2023/03/20 00:15:33;;;;;;;1.50;1.40;;;;;;;17.30;57.82;101469.06;20873063;28;20045;-86
2023/03/20 00:25:37;;;;;;;1.45;1.35;;;;;;;17.27;57.55;101484.59;20855138;28;20045;-86
2023/03/20 00:35:39;;;;;;;1.23;1.10;;;;;;;17.30;57.67;101497.81;20877280;28;20049;-85
2023/03/20 00:45:43;;;;;;;2.05;1.55;;;;;;;17.22;57.39;101493.84;20837076;28;20442;-85
2023/03/20 00:55:44;;;;;;;1.73;1.30;;;;;;;17.30;57.49;101511.28;20851522;28;20053;-85
2023/03/20 01:05:47;;;;;;;1.50;1.23;;;;;;;17.29;57.38;101517.63;20865048;28;20064;-85
2023/03/20 01:15:50;;;;;;;1.80;1.10;;;;;;;17.29;57.36;101520.31;20879321;28;20127;-85
2023/03/20 01:25:52;;;;;;;2.17;1.20;;;;;;;17.29;57.32;101536.47;20863282;28;20409;-85
2023/03/20 01:35:56;;;;;;;1.55;0.93;;;;;;;17.12;57.21;101521.59;20845562;28;20041;-86
2023/03/20 01:46:24;;;;;;;2.05;1.23;;;;;;;17.27;57.30;101543.78;20863760;28;20539;-86
2023/03/20 01:56:32;;;;;;;1.67;1.00;;;;;;;17.21;57.11;101519.03;20822594;28;20611;-85
2023/03/20 02:06:36;;;;;;;1.20;1.10;;;;;;;17.25;57.03;101493.66;20858536;28;21365;-86
2023/03/20 02:16:49;;;;;;;2.72;1.00;;;;;;;17.18;57.00;101496.91;20859227;28;20114;-85
2023/03/20 02:27:38;;;;;;;1.50;0.90;;;;;;;17.25;56.87;101480.19;20843622;28;20387;-86
2023/03/20 02:38:04;;;;;;;2.35;1.05;;;;;;;17.24;56.71;101470.41;20843018;28;20068;-85
2023/03/20 02:48:16;;;;;;;;;;;;;;;17.24;56.65;101465.03;20842443;28;20619;-85
2023/03/20 02:58:22;;;;;;;2.38;1.00;;;;;;;17.21;56.56;101446.38;20859126;28;19921;-85
2023/03/20 03:08:30;;;;;;;2.03;1.05;;;;;;;17.18;56.61;101443.94;20826267;28;20041;-85
2023/03/20 03:18:34;;;;;;;1.38;1.02;;;;;;;17.18;56.44;101427.78;20832191;28;20041;-85
2023/03/20 03:28:40;;;;;;;1.67;1.23;;;;;;;16.91;56.31;101376.97;20862410;28;20045;-86
2023/03/20 03:39:10;;;;;;;2.05;1.23;;;;;;;17.21;56.24;101411.41;20871420;28;20034;-85
2023/03/20 03:49:16;;;;;;;1.95;1.10;;;;;;;17.05;56.29;101374.09;20882575;28;20053;-86
2023/03/20 03:59:37;;;;;;;2.38;1.10;;;;;;;17.21;56.13;101407.88;20870949;28;20230;-85
2023/03/20 04:09:39;;;;;;;1.77;1.08;;;;;;;17.21;56.00;101394.44;20855799;28;20098;-86
2023/03/20 04:19:41;;;;;;;1.48;1.38;;;;;;;17.20;55.89;101382.78;20843250;28;20497;-85
2023/03/20 04:29:43;;;;;;;1.73;1.20;;;;;;;17.20;56.19;101385.47;20848212;28;20045;-85
2023/03/20 04:40:05;;;;;;;1.77;1.10;;;;;;;17.20;55.72;101371.19;20839540;28;20417;-85
2023/03/20 04:50:08;;;;;;;2.38;1.10;;;;;;;17.19;55.55;101381.09;20847919;28;20041;-85
2023/03/20 05:00:11;;;;;;;2.70;1.67;;;;;;;17.09;55.38;101377.41;20807738;28;20073;-85
2023/03/20 05:10:13;;;;;;;1.98;0.90;;;;;;;17.14;55.50;101367.13;20862737;28;20056;-87
2023/03/20 05:20:35;;;;;;;1.27;0.88;;;;;;;17.08;55.46;101346.97;20856979;28;20045;-85
2023/03/20 05:30:52;;;;;;;1.33;1.00;;;;;;;17.17;55.15;101374.97;20866658;28;20049;-85
2023/03/20 05:41:24;;;;;;;1.67;1.00;;;;;;;17.18;55.09;101383.91;20839559;28;20049;-86
2023/03/20 05:51:46;;;;;;;1.35;0.93;;;;;;;17.18;55.06;101389.28;20842877;28;20132;-86
2023/03/20 06:02:11;;;;;;;1.42;0.93;;;;;;;17.18;54.86;101411.66;20808992;28;20053;-85
2023/03/20 06:12:19;;;;;;;1.48;0.90;;;;;;;17.17;54.76;101409.94;20845613;28;20044;-85
2023/03/20 06:22:21;;;;;;;1.13;0.93;;;;;;;17.17;54.71;101415.31;20833524;28;20049;-85
2023/03/20 06:32:23;;;;;;;1.35;1.20;;;;;;;17.18;54.56;101406.28;20847961;28;20047;-85
2023/03/20 06:42:27;;;;;;;1.35;1.05;;;;;;;17.18;54.54;101408.97;20847063;28;20132;-86
2023/03/20 06:52:29;;;;;;;1.42;0.90;;;;;;;17.18;54.33;101406.28;20837973;28;20095;-86
2023/03/20 07:02:52;;;;;;;1.17;0.90;;;;;;;17.18;54.16;101405.44;20877593;28;20132;-85
2023/03/20 07:12:54;;;;;;;2.05;1.02;;;;;;;17.14;54.03;101410.19;20826544;28;20040;-81
2023/03/20 07:22:56;;;;;;;1.88;1.17;;;;;;;17.19;54.12;101413.38;20861548;28;20121;-87
2023/03/20 07:33:00;;;;;;;1.85;0.70;;;;;;;17.32;54.67;101429.41;20862195;28;20064;-90
2023/03/20 07:43:05;;;;;;;2.90;1.43;;;;;;;17.41;55.75;101430.53;20853155;28;20048;-95
2023/03/20 07:53:25;;;;;;;0.98;0.82;;;;;;;17.46;56.40;101431.03;20842581;28;20057;-86
2023/03/20 08:03:27;;;;;;;4.65;2.05;;;;;;;17.58;64.93;101436.44;20841819;28;20041;-86
2023/03/20 08:13:29;;;;;;;6.07;2.20;;;;;;;17.75;73.13;101441.34;20867139;28;20044;-90
2023/03/20 08:23:31;;;;;;;3.42;1.98;;;;;;;17.81;75.29;101448.94;20845634;28;20382;-95
2023/03/20 08:33:33;;;;;;;6.75;2.53;;;;;;;17.74;72.70;101455.78;20853400;28;20072;-93
2023/03/20 08:43:35;;;;;;;4.68;1.83;;;;;;;17.71;69.55;101452.47;20848983;28;20040;-92
2023/03/20 08:53:36;;;;;;;6.38;1.80;;;;;;;17.64;67.30;101430.56;20848354;28;20042;-94
2023/03/20 09:03:38;;;;;;;3.67;1.58;;;;;;;17.66;65.35;101432.16;20873206;28;20068;-86
2023/03/20 09:13:40;;;;;;;3.92;1.88;;;;;;;17.66;63.95;101433.97;20856039;28;20060;-84
2023/03/20 09:23:42;;;;;;;2.90;1.80;;;;;;;17.65;62.48;101427.75;20847609;28;20154;-85
2023/03/20 09:33:43;;;;;;;3.65;1.45;;;;;;;17.64;61.42;101426.03;20828334;28;20060;-85
2023/03/20 09:44:05;;;;;;;2.05;1.33;;;;;;;17.65;60.46;101419.69;20813740;28;20045;-85
2023/03/20 09:54:19;;;;;;;2.58;1.25;;;;;;;17.65;59.50;101429.56;20828294;28;20387;-85
2023/03/20 10:04:21;;;;;;;3.42;1.17;;;;;;;17.68;58.91;101422.13;20819412;28;20107;-87
2023/03/20 10:14:32;;;;;;;1.88;1.40;;;;;;;17.63;58.15;101426.16;20825875;28;20114;-94
2023/03/20 10:25:06;;;;;;;2.75;1.17;;;;;;;17.59;57.54;101435.44;20858032;28;20437;-90
2023/03/20 10:35:32;;;;;;;2.58;1.20;;;;;;;17.54;57.01;101428.59;20844245;28;20057;-90
2023/03/20 10:45:43;;;;;;;2.47;1.30;;;;;;;17.46;56.77;101420.28;20838452;28;20071;-87
2023/03/20 10:55:45;;;;;;;2.70;1.33;;;;;;;17.48;56.75;101409.41;20809931;28;20055;-87
2023/03/20 11:06:10;;;;;;;1.42;1.17;;;;;;;17.46;56.37;101409.50;20819368;28;20048;-87
2023/03/20 11:16:21;;;;;;;1.37;0.80;;;;;;;17.46;56.30;101431.03;20843434;28;20057;-85
2023/03/20 11:26:38;;;;;;;2.10;1.40;;;;;;;17.34;56.01;101421.25;20891700;28;20412;-85
2023/03/20 11:36:54;;;;;;;2.05;0.90;;;;;;;17.44;55.94;101434.81;20844455;28;20067;-85
2023/03/20 11:47:18;;;;;;;1.65;1.20;;;;;;;17.42;55.38;101413.41;20872484;28;20128;-85
2023/03/20 11:57:34;;;;;;;2.40;1.20;;;;;;;17.30;55.52;101406.31;20850369;28;20041;-85
2023/03/20 12:07:36;;;;;;;2.67;1.35;;;;;;;17.42;55.40;101424.19;20867274;28;20052;-85
2023/03/20 12:17:46;;;;;;;1.95;1.00;;;;;;;17.39;55.19;101409.13;20860652;28;20041;-88
2023/03/20 12:28:00;;;;;;;1.63;0.80;;;;;;;17.32;55.09;101385.53;20864108;28;20053;-89
2023/03/20 12:38:08;;;;;;;1.77;1.17;;;;;;;17.41;55.00;101398.25;20840344;28;20059;-92
2023/03/20 12:48:41;;;;;;;3.30;1.00;;;;;;;17.39;54.77;101387.59;20850802;28;20489;-92
2023/03/20 12:58:53;;;;;;;1.95;1.23;;;;;;;17.40;54.91;101383.06;20919300;28;20064;-94
2023/03/20 13:09:04;;;;;;;1.40;0.80;;;;;;;17.39;54.99;101376.81;20891031;28;20044;-91
2023/03/20 13:19:11;;;;;;;2.40;1.10;;;;;;;17.39;55.02;101362.53;20889011;28;20059;-86
2023/03/20 13:29:29;;;;;;;1.02;0.80;;;;;;;17.38;54.94;101374.28;20821605;28;20044;-86
2023/03/20 13:39:56;;;;;;;1.38;0.70;;;;;;;17.37;55.12;101372.56;20870727;28;20048;-93
2023/03/20 13:50:25;;;;;;;2.67;1.00;;;;;;;17.36;55.08;101362.78;20868906;28;20045;-88
2023/03/20 14:00:54;;;;;;;2.35;0.75;;;;;;;17.35;55.33;101364.59;20872643;28;20065;-92
2023/03/20 14:11:34;;;;;;;1.90;1.02;;;;;;;17.35;55.51;101358.38;20882257;28;20493;-92
2023/03/20 14:21:36;;;;;;;2.00;0.88;;;;;;;17.35;55.37;101361.06;20879538;28;20103;-94
2023/03/20 14:31:40;;;;;;;1.73;0.70;;;;;;;17.34;55.39;101362.03;20872163;28;20069;-86
2023/03/20 14:42:05;;;;;;;1.53;0.80;;;;;;;17.33;55.36;101349.56;20850112;28;20052;-89
2023/03/20 14:52:36;;;;;;;2.15;0.90;;;;;;;17.34;55.42;101332.44;20826735;28;20064;-87
2023/03/20 15:02:39;;;;;;;1.20;0.80;;;;;;;17.04;55.38;101297.09;20828120;28;20051;-86
2023/03/20 15:12:42;;;;;;;0.98;0.82;;;;;;;17.33;55.69;101317.25;20832423;28;20509;-92
2023/03/20 15:22:48;;;;;;;0.93;0.70;;;;;;;17.17;55.59;101286.19;20868756;28;20037;-93
2023/03/20 15:32:52;;;;;;;1.95;0.80;;;;;;;16.93;55.90;101235.16;20851137;28;20055;-93
2023/03/20 15:42:57;;;;;;;1.48;0.70;;;;;;;17.31;55.87;101284.25;20836470;28;20056;-94
2023/03/20 15:52:59;;;;;;;;;;;;;;;17.30;55.99;101285.22;20888015;28;20503;-85
2023/03/20 16:03:04;;;;;;;0.70;0.60;;;;;;;17.15;56.24;101276.53;20848497;28;19924;-86
2023/03/20 16:13:06;;;;;;;2.07;0.60;;;;;;;17.18;56.46;101278.97;20843114;28;20045;-90
2023/03/20 16:23:08;;;;;;;1.02;0.80;;;;;;;17.27;56.37;101293.53;20885576;28;20542;-85
2023/03/20 16:33:13;;;;;;;0.75;0.60;;;;;;;17.26;56.47;101284.59;20846043;28;20041;-86
2023/03/20 16:43:17;;;;;;;0.70;0.55;;;;;;;17.27;56.58;101285.47;20873427;28;20095;-87
2023/03/20 16:53:19;;;;;;;1.33;0.80;;;;;;;17.25;56.78;101278.38;20862815;28;20049;-85
2023/03/20 17:03:27;;;;;;;1.38;0.73;;;;;;;17.25;56.75;101278.38;20870164;28;20076;-86
2023/03/20 17:13:29;;;;;;;0.70;0.50;;;;;;;17.24;56.84;101273.97;20872767;28;20048;-89
2023/03/20 17:23:31;;;;;;;0.63;0.50;;;;;;;17.17;57.59;101258.44;20860760;28;20501;-83
2023/03/20 17:33:35;;;;;;;0.90;0.63;;;;;;;16.93;57.50;101225.28;20870570;28;20137;-82
2023/03/20 17:43:36;;;;;;;1.13;0.57;;;;;;;17.23;57.63;101295.59;20848851;28;20095;-83
2023/03/20 17:53:38;;;;;;;1.42;0.70;;;;;;;17.22;57.58;101289.34;20868651;28;20045;-82
2023/03/20 18:03:40;;;;;;;1.05;0.73;;;;;;;17.22;57.69;101292.03;20875009;28;20063;-85
2023/03/20 18:13:42;;;;;;;0.88;0.60;;;;;;;17.13;57.77;101273.94;20889308;28;20056;-84
2023/03/20 18:23:44;;;;;;;0.80;0.65;;;;;;;17.19;57.64;101286.91;20864876;28;20055;-84
2023/03/20 18:33:47;;;;;;;0.70;0.60;;;;;;;17.21;57.78;101293.03;20890290;28;20087;-84
2023/03/20 18:43:50;;;;;;;1.40;0.60;;;;;;;17.21;57.89;101290.34;20876402;28;20390;-84
2023/03/20 18:53:52;;;;;;;0.75;0.75;;;;;;;17.10;57.84;101266.13;20890118;28;20063;-84
2023/03/20 19:03:53;;;;;;;0.50;0.50;;;;;;;17.19;57.96;101273.47;20909402;28;20140;-84
2023/03/20 19:13:55;;;;;;;1.08;0.98;;;;;;;17.21;57.85;101286.81;20882199;28;20049;-84
2023/03/20 19:23:59;;;;;;;0.70;0.60;;;;;;;17.20;57.80;101285.94;20871952;28;20431;-84
2023/03/20 19:34:01;;;;;;;0.82;0.73;;;;;;;17.20;58.07;101288.63;20909569;28;20570;-83
2023/03/20 19:44:04;;;;;;;0.73;0.70;;;;;;;17.20;57.97;101280.56;20895380;28;20528;-84
2023/03/20 19:54:07;;;;;;;1.23;0.75;;;;;;;17.17;58.03;101272.72;20882227;28;20114;-84
2023/03/20 20:04:09;;;;;;;0.68;0.68;;;;;;;17.20;57.96;101264.41;20878273;28;20045;-83
2023/03/20 20:14:11;;;;;;;0.93;0.70;;;;;;;17.09;58.00;101245.59;20895526;28;20060;-84
2023/03/20 20:24:15;;;;;;;1.30;0.80;;;;;;;17.19;58.07;101262.69;20890574;28;20056;-84
2023/03/20 20:34:18;;;;;;;0.77;0.73;;;;;;;17.20;58.06;101240.19;20886880;28;20065;-83
2023/03/20 20:44:40;;;;;;;0.60;0.60;;;;;;;17.19;57.96;101246.56;20883484;28;20037;-84
2023/03/20 20:54:42;;;;;;;1.00;0.90;;;;;;;17.19;58.13;101257.31;20893352;28;20494;-84
2023/03/20 21:04:43;;;;;;;1.05;0.85;;;;;;;17.06;58.13;101224.31;20875298;28;20136;-84
2023/03/20 21:14:45;;;;;;;1.33;0.90;;;;;;;17.21;58.13;101249.13;20907973;28;20120;-84
2023/03/20 21:24:49;;;;;;;0.77;0.77;;;;;;;17.20;58.05;101250.97;20881202;28;20052;-84
2023/03/20 21:34:51;;;;;;;0.98;0.90;;;;;;;17.20;58.11;101247.44;20890368;28;20084;-84
2023/03/20 21:44:53;;;;;;;1.10;1.00;;;;;;;17.20;58.25;101242.88;20904445;28;20048;-84
2023/03/20 21:55:15;;;;;;;1.38;1.10;;;;;;;17.17;58.25;101240.44;20904477;28;20379;-84
2023/03/20 22:05:38;;;;;;;1.00;0.82;;;;;;;17.17;58.38;101235.06;20878640;28;20071;-82
2023/03/20 22:16:00;;;;;;;1.30;1.20;;;;;;;17.18;58.40;101227.84;20892518;28;20095;-84
2023/03/20 22:26:22;;;;;;;1.40;1.30;;;;;;;17.17;58.38;101229.69;20873937;28;20052;-84
2023/03/20 22:36:44;;;;;;;0.90;0.90;;;;;;;17.17;58.49;101232.38;20878014;28;20052;-84
2023/03/20 22:47:06;;;;;;;1.23;1.05;;;;;;;17.17;58.47;101232.38;20918579;28;20053;-84
2023/03/20 22:57:08;;;;;;;1.13;0.90;;;;;;;17.13;58.46;101220.16;20901290;28;20087;-84
2023/03/20 23:07:10;;;;;;;1.38;1.00;;;;;;;17.12;58.43;101220.28;20884334;28;20044;-84
2023/03/20 23:17:12;;;;;;;1.80;1.15;;;;;;;17.18;58.58;101228.69;20902557;28;20408;-84
2023/03/20 23:27:14;;;;;;;0.95;0.88;;;;;;;17.05;58.78;101209.16;20886662;28;20048;-83
2023/03/20 23:37:16;;;;;;;1.17;1.08;;;;;;;17.17;58.70;101215.38;20890139;28;20128;-84
2023/03/20 23:47:17;;;;;;;1.58;1.00;;;;;;;17.17;58.66;101216.22;20872066;28;20052;-83
2023/03/20 23:57:21;;;;;;;0.88;0.88;;;;;;;17.17;58.82;101208.16;20895183;28;20159;-84
